Hlavní strana
METAR-TAF:

METAR-TAF

Letiště :

Letiště Pardubice

Pardubice, Česká republika

zeměpisná šířka: 50-00-48N, zeměpisná délka: 15-44-19E, výška: 226 m

Aktuální stav počasí

Zpráva byla vytvořena před 1 hodinou a 1 minutami, v 17:00 UTC
Severovýchodní vítr 3 kt, proměnlivý mezi severním a východním
Teplota 3°C
Vlhkost vzduchu 48%
Tlak 1033 hPa
Viditelnost 10 km a více
Žádná oblačnost pod 1500 m, nevyskytují se cumulonimby.

METAR: LKPD 171700Z 04003KT 360V080 CAVOK 03/M07 Q1033 RMK BLACK

Čas: 19:01 (18:01 UTC)


TAF: chybějící

Stav a předpovědi počasí z více než 4 000 letišť (zprávy METAR a TAF).

Červené a žluté tečky na mapě představují dostupné meteorologické stanice.

Když kurzor umístíte na tečku, zobrazí se název stanice.

Pak kliknutím zobrazíte stav a předpověď počasí.

Chcete-li změnit mapu, kliknutím na zelené tlačítko se znaménkem +mapu přiblížíte, kliknutím na zelené tlačítko se znaménkem – mapu oddálíte a kliknutím na zelené šipky přejdete na sousední mapy.


METAR-TAF: